createdAt,value
2022-09-11T00:00:40.520Z,15.36
2022-09-11T00:03:06.960Z,15.31
2022-09-11T00:05:37.339Z,15.26
2022-09-11T00:08:03.760Z,15.21
2022-09-11T00:10:30.166Z,15.17
2022-09-11T00:12:56.685Z,15.18
2022-09-11T00:15:23.094Z,15.16
2022-09-11T00:17:49.478Z,15.14
2022-09-11T00:20:16.024Z,15.08
2022-09-11T00:22:42.379Z,15.06
2022-09-11T00:25:09.072Z,15.02
2022-09-11T00:27:35.504Z,14.97
2022-09-11T00:30:01.954Z,14.97
2022-09-11T00:32:28.310Z,14.94
2022-09-11T00:34:54.732Z,14.91
2022-09-11T00:37:21.116Z,14.87
2022-09-11T00:39:47.882Z,14.81
2022-09-11T00:42:14.327Z,14.78
2022-09-11T00:44:40.828Z,14.75
2022-09-11T00:47:09.090Z,14.75
2022-09-11T00:49:48.676Z,14.73
2022-09-11T00:52:20.859Z,14.70
2022-09-11T00:54:51.817Z,14.67
2022-09-11T00:57:22.868Z,14.62
2022-09-11T00:59:51.477Z,14.58
2022-09-11T01:02:23.258Z,14.55
2022-09-11T01:04:54.573Z,14.55
2022-09-11T01:07:22.974Z,14.52
2022-09-11T01:09:50.324Z,14.51
2022-09-11T01:12:26.135Z,14.50
2022-09-11T01:15:00.328Z,14.47
2022-09-11T01:17:49.520Z,14.45
2022-09-11T01:20:33.445Z,14.42
2022-09-11T01:23:33.682Z,14.38
2022-09-11T01:26:33.452Z,14.35
2022-09-11T01:29:06.489Z,14.29
2022-09-11T01:31:44.443Z,14.29
2022-09-11T01:34:20.865Z,14.25
2022-09-11T01:36:55.908Z,14.24
2022-09-11T01:39:26.012Z,14.20
2022-09-11T01:41:59.247Z,14.18
2022-09-11T01:44:50.733Z,14.15
2022-09-11T01:47:19.836Z,14.08
2022-09-11T01:49:55.684Z,14.06
2022-09-11T01:52:27.043Z,14.05
2022-09-11T01:54:57.732Z,14.04
2022-09-11T01:57:42.117Z,14.03
2022-09-11T02:00:11.226Z,13.99
2022-09-11T02:02:42.460Z,14.00
2022-09-11T02:05:43.697Z,13.99
2022-09-11T02:08:36.860Z,13.97
2022-09-11T02:11:08.032Z,13.92
2022-09-11T02:13:59.528Z,13.96
2022-09-11T02:16:42.236Z,13.99
2022-09-11T02:19:12.394Z,14.06
2022-09-11T02:21:39.315Z,13.98
2022-09-11T02:24:06.182Z,13.93
2022-09-11T02:26:37.130Z,13.89
2022-09-11T02:29:03.617Z,13.85
2022-09-11T02:31:30.311Z,13.86
2022-09-11T02:33:56.719Z,13.94
2022-09-11T02:36:26.113Z,13.91
2022-09-11T02:38:52.452Z,13.77
2022-09-11T02:41:27.258Z,13.69
2022-09-11T02:44:11.956Z,13.69
2022-09-11T02:47:03.132Z,13.65
2022-09-11T02:49:54.240Z,13.61
2022-09-11T02:52:26.318Z,13.57
2022-09-11T02:54:52.674Z,13.52
2022-09-11T02:57:34.222Z,13.58
2022-09-11T03:00:03.718Z,13.53
2022-09-11T03:02:32.756Z,13.50
2022-09-11T03:04:59.178Z,13.45
2022-09-11T03:07:26.018Z,13.46
2022-09-11T03:09:52.907Z,13.46
2022-09-11T03:12:19.356Z,13.44
2022-09-11T03:14:45.759Z,13.41
2022-09-11T03:17:12.159Z,13.38
2022-09-11T03:19:38.623Z,13.37
2022-09-11T03:22:05.084Z,13.36
2022-09-11T03:24:31.443Z,13.36
2022-09-11T03:26:57.812Z,13.37
2022-09-11T03:29:24.214Z,13.37
2022-09-11T03:31:50.611Z,13.32
2022-09-11T03:34:17.076Z,13.28
2022-09-11T03:36:44.047Z,13.35
2022-09-11T03:39:10.598Z,13.35
2022-09-11T03:41:36.972Z,13.38
2022-09-11T03:44:03.481Z,13.36
2022-09-11T03:46:29.894Z,13.34
2022-09-11T03:48:56.407Z,13.30
2022-09-11T03:51:22.794Z,13.28
2022-09-11T03:53:49.285Z,13.29
2022-09-11T03:56:15.853Z,13.37
2022-09-11T03:58:42.288Z,13.40
2022-09-11T04:01:14.374Z,13.53
2022-09-11T04:03:41.916Z,13.40
2022-09-11T04:06:08.607Z,13.41
2022-09-11T04:08:35.085Z,13.43
2022-09-11T04:11:04.273Z,13.38
2022-09-11T04:13:33.270Z,13.31
2022-09-11T04:16:05.976Z,13.28
2022-09-11T04:18:35.163Z,13.20
2022-09-11T04:21:05.984Z,13.20
2022-09-11T04:23:32.734Z,13.15
2022-09-11T04:25:59.117Z,13.13
2022-09-11T04:28:27.308Z,13.13
2022-09-11T04:30:53.684Z,13.13
2022-09-11T04:33:20.023Z,13.10
2022-09-11T04:35:46.445Z,13.11
2022-09-11T04:38:12.779Z,13.15
2022-09-11T04:40:39.115Z,13.10
2022-09-11T04:43:05.559Z,13.07
2022-09-11T04:45:32.007Z,13.07
2022-09-11T04:47:58.842Z,13.07
2022-09-11T04:50:25.267Z,13.06
2022-09-11T04:52:51.605Z,13.06
2022-09-11T04:55:18.002Z,13.04
2022-09-11T04:57:44.446Z,13.05
2022-09-11T05:00:11.402Z,13.07
2022-09-11T05:02:37.765Z,13.04
2022-09-11T05:05:04.590Z,13.01
2022-09-11T05:07:30.980Z,12.99
2022-09-11T05:09:57.463Z,13.04
2022-09-11T05:12:23.823Z,13.06
2022-09-11T05:14:50.216Z,13.14
2022-09-11T05:17:16.572Z,13.18
2022-09-11T05:19:43.000Z,13.20
2022-09-11T05:22:09.343Z,13.24
2022-09-11T05:24:35.751Z,13.29
2022-09-11T05:27:02.147Z,13.35
2022-09-11T05:29:32.257Z,13.42
2022-09-11T05:31:59.184Z,13.53
2022-09-11T05:34:26.597Z,13.70
2022-09-11T05:36:52.962Z,13.71
2022-09-11T05:39:19.340Z,13.74
2022-09-11T05:41:45.693Z,13.76
2022-09-11T05:44:12.034Z,13.87
2022-09-11T05:46:38.369Z,13.99
2022-09-11T05:49:04.729Z,14.11
2022-09-11T05:51:31.085Z,14.23
2022-09-11T05:53:57.490Z,14.30
2022-09-11T05:56:25.345Z,14.32
2022-09-11T05:58:52.000Z,14.32
2022-09-11T06:01:20.685Z,14.35
2022-09-11T06:03:47.144Z,14.52
2022-09-11T06:06:13.565Z,14.89
2022-09-11T06:08:41.289Z,15.07
2022-09-11T06:11:07.814Z,15.96
2022-09-11T06:13:40.191Z,18.13
2022-09-11T06:16:18.415Z,19.71
2022-09-11T06:18:46.571Z,20.73
2022-09-11T06:21:13.371Z,21.65
2022-09-11T06:23:39.987Z,22.57
2022-09-11T06:26:17.264Z,23.37
2022-09-11T06:28:43.692Z,24.44
2022-09-11T06:31:12.802Z,25.41
2022-09-11T06:33:41.230Z,25.59
2022-09-11T06:36:11.223Z,25.41
2022-09-11T06:38:37.751Z,25.23
2022-09-11T06:41:06.671Z,25.80
2022-09-11T06:43:33.363Z,26.53
2022-09-11T06:46:07.734Z,26.65
2022-09-11T06:48:34.201Z,25.79
2022-09-11T06:51:04.533Z,26.10
2022-09-11T06:53:30.937Z,26.25
2022-09-11T06:56:02.139Z,26.93
2022-09-11T06:58:29.046Z,27.67
2022-09-11T07:01:06.077Z,27.98
2022-09-11T07:03:33.074Z,27.61
2022-09-11T07:06:00.558Z,27.40
2022-09-11T07:08:27.481Z,27.98
2022-09-11T07:10:54.325Z,28.99
2022-09-11T07:13:21.211Z,29.64
2022-09-11T07:15:47.594Z,29.21
2022-09-11T07:18:13.941Z,28.13
2022-09-11T07:20:41.144Z,28.30
2022-09-11T07:23:08.438Z,29.07
2022-09-11T07:25:37.007Z,29.38
2022-09-11T07:28:03.586Z,29.35
2022-09-11T07:30:30.044Z,29.64
2022-09-11T07:32:56.503Z,30.68
2022-09-11T07:35:22.971Z,31.73
2022-09-11T07:37:50.964Z,31.50
2022-09-11T07:40:17.667Z,31.61
2022-09-11T07:42:44.305Z,30.62
2022-09-11T07:45:13.422Z,31.21
2022-09-11T07:47:50.259Z,31.06
2022-09-11T07:50:18.020Z,30.91
2022-09-11T07:52:44.429Z,30.48
2022-09-11T07:55:10.954Z,29.92
2022-09-11T07:57:37.421Z,28.99
2022-09-11T08:00:04.366Z,29.41
2022-09-11T08:02:30.770Z,30.49
2022-09-11T08:04:57.249Z,30.64
2022-09-11T08:07:23.645Z,29.58
2022-09-11T08:10:04.357Z,29.02
2022-09-11T08:12:36.553Z,29.33
2022-09-11T08:15:02.992Z,29.81
2022-09-11T08:17:29.342Z,29.61
2022-09-11T08:19:55.812Z,29.01
2022-09-11T08:22:22.280Z,29.73
2022-09-11T08:24:48.629Z,28.16
2022-09-11T08:27:15.087Z,26.66
2022-09-11T08:29:41.413Z,25.34
2022-09-11T08:32:07.769Z,24.47
2022-09-11T08:34:34.411Z,23.71
2022-09-11T08:37:00.816Z,24.16
2022-09-11T08:39:27.211Z,24.20
2022-09-11T08:42:02.053Z,23.54
2022-09-11T08:44:39.203Z,25.50
2022-09-11T08:47:10.213Z,29.26
2022-09-11T08:49:41.411Z,32.47
2022-09-11T08:52:14.137Z,34.82
2022-09-11T08:54:42.157Z,36.84
2022-09-11T08:57:20.382Z,37.70
2022-09-11T09:00:15.375Z,37.91
2022-09-11T09:03:09.898Z,38.59
2022-09-11T09:05:56.727Z,39.85
2022-09-11T09:08:41.821Z,39.21
2022-09-11T09:11:46.768Z,40.40
2022-09-11T09:14:38.272Z,40.27
2022-09-11T09:17:07.474Z,41.22
2022-09-11T09:19:52.249Z,41.85
2022-09-11T09:22:28.213Z,39.16
2022-09-11T09:24:59.050Z,35.78
2022-09-11T09:27:33.619Z,33.96
2022-09-11T09:30:04.164Z,35.49
2022-09-11T09:32:34.973Z,36.67
2022-09-11T09:35:11.469Z,37.73
2022-09-11T09:37:38.938Z,39.42
2022-09-11T09:40:08.966Z,40.10
2022-09-11T09:42:57.631Z,39.92
2022-09-11T09:45:52.409Z,40.94
2022-09-11T09:48:18.938Z,38.77
2022-09-11T09:50:45.575Z,34.56
2022-09-11T09:53:21.410Z,31.24
2022-09-11T09:55:48.970Z,29.42
2022-09-11T09:58:15.368Z,27.85
2022-09-11T10:00:42.117Z,26.86
2022-09-11T10:03:20.161Z,26.09
2022-09-11T10:05:48.717Z,25.27
2022-09-11T10:08:24.166Z,24.83
2022-09-11T10:11:01.400Z,24.40
2022-09-11T10:13:31.297Z,25.56
2022-09-11T10:16:03.827Z,27.84
2022-09-11T10:18:30.212Z,29.82
2022-09-11T10:21:11.782Z,32.58
2022-09-11T10:23:54.687Z,35.26
2022-09-11T10:26:42.719Z,36.31
2022-09-11T10:29:11.828Z,37.36
2022-09-11T10:31:49.632Z,35.93
2022-09-11T10:34:18.900Z,34.59
2022-09-11T10:37:11.625Z,36.42
2022-09-11T10:39:38.478Z,37.70
2022-09-11T10:42:16.635Z,38.47
2022-09-11T10:44:45.534Z,38.65
2022-09-11T10:47:21.124Z,37.39
2022-09-11T10:49:48.240Z,37.83
2022-09-11T10:52:14.647Z,38.15
2022-09-11T10:54:47.163Z,38.66
2022-09-11T10:57:13.535Z,38.92
2022-09-11T10:59:59.746Z,39.21
2022-09-11T11:02:31.168Z,39.78
2022-09-11T11:05:03.377Z,39.42
2022-09-11T11:07:38.734Z,39.03
2022-09-11T11:10:36.213Z,34.92
2022-09-11T11:13:30.501Z,34.21
2022-09-11T11:16:21.824Z,35.97
2022-09-11T11:18:56.603Z,36.80
2022-09-11T11:21:32.308Z,37.32
2022-09-11T11:24:37.207Z,37.76
2022-09-11T11:27:37.246Z,36.79
2022-09-11T11:30:11.188Z,37.48
2022-09-11T11:33:10.133Z,37.76
2022-09-11T11:35:45.826Z,37.44
2022-09-11T11:38:22.080Z,36.07
2022-09-11T11:40:54.456Z,34.67
2022-09-11T11:43:27.466Z,31.46
2022-09-11T11:45:53.859Z,29.03
2022-09-11T11:48:46.852Z,27.56
2022-09-11T11:51:19.158Z,27.05
2022-09-11T11:53:59.506Z,26.97
2022-09-11T11:56:31.837Z,26.84
2022-09-11T11:58:58.236Z,28.02
2022-09-11T12:01:32.603Z,29.20
2022-09-11T12:04:16.007Z,28.13
2022-09-11T12:06:42.522Z,27.85
2022-09-11T12:09:09.413Z,27.66
2022-09-11T12:11:36.151Z,27.08
2022-09-11T12:14:02.929Z,27.12
2022-09-11T12:16:33.868Z,27.16
2022-09-11T12:19:04.957Z,27.04
2022-09-11T12:21:31.306Z,26.66
2022-09-11T12:23:57.627Z,26.24
2022-09-11T12:26:25.396Z,25.80
2022-09-11T12:29:10.538Z,25.23
2022-09-11T12:32:18.715Z,24.61
2022-09-11T12:34:45.086Z,24.31
2022-09-11T12:37:19.623Z,24.31
2022-09-11T12:40:01.888Z,24.10
2022-09-11T12:42:31.349Z,23.88
2022-09-11T12:44:58.564Z,23.80
2022-09-11T12:47:37.333Z,23.88
2022-09-11T12:50:15.037Z,23.59
2022-09-11T12:52:50.460Z,23.68
2022-09-11T12:55:31.365Z,23.89
2022-09-11T12:58:02.540Z,23.73
2022-09-11T13:00:41.840Z,23.60
2022-09-11T13:03:19.344Z,23.39
2022-09-11T13:05:55.349Z,23.44
2022-09-11T13:08:26.221Z,23.47
2022-09-11T13:10:52.670Z,23.41
2022-09-11T13:13:34.496Z,23.47
2022-09-11T13:16:19.488Z,23.57
2022-09-11T13:18:46.228Z,23.89
2022-09-11T13:21:15.667Z,24.11
2022-09-11T13:23:42.174Z,24.58
2022-09-11T13:26:15.347Z,24.81
2022-09-11T13:28:49.218Z,24.83
2022-09-11T13:31:24.964Z,24.69
2022-09-11T13:33:52.532Z,24.59
2022-09-11T13:36:24.688Z,24.31
2022-09-11T13:38:57.994Z,24.64
2022-09-11T13:41:29.023Z,24.89
2022-09-11T13:43:58.628Z,24.91
2022-09-11T13:46:26.073Z,25.00
2022-09-11T13:49:19.820Z,24.92
2022-09-11T13:51:47.808Z,24.77
2022-09-11T13:54:18.250Z,24.81
2022-09-11T13:56:46.115Z,24.98
2022-09-11T13:59:43.484Z,25.00
2022-09-11T14:02:27.328Z,24.97
2022-09-11T14:05:02.043Z,25.11
2022-09-11T14:07:28.668Z,25.29
2022-09-11T14:10:07.727Z,25.63
2022-09-11T14:12:46.549Z,26.07
2022-09-11T14:15:21.809Z,26.10
2022-09-11T14:17:48.575Z,26.02
2022-09-11T14:20:18.981Z,26.14
2022-09-11T14:22:46.183Z,26.50
2022-09-11T14:25:21.287Z,26.79
2022-09-11T14:27:48.175Z,26.54
2022-09-11T14:30:25.331Z,26.69
2022-09-11T14:33:13.178Z,26.43
2022-09-11T14:35:39.919Z,26.06
2022-09-11T14:38:06.510Z,26.25
2022-09-11T14:40:32.861Z,26.09
2022-09-11T14:42:59.339Z,26.15
2022-09-11T14:45:25.702Z,25.88
2022-09-11T14:47:52.867Z,25.73
2022-09-11T14:50:19.302Z,25.28
2022-09-11T14:52:45.763Z,25.16
2022-09-11T14:55:19.714Z,25.15
2022-09-11T14:57:46.512Z,25.42
2022-09-11T15:00:18.563Z,25.28
2022-09-11T15:02:45.354Z,24.93
2022-09-11T15:05:16.302Z,25.14
2022-09-11T15:07:43.243Z,25.10
2022-09-11T15:10:10.860Z,25.24
2022-09-11T15:12:37.250Z,25.23
2022-09-11T15:15:04.699Z,25.15
2022-09-11T15:17:31.415Z,25.31
2022-09-11T15:19:58.416Z,25.54
2022-09-11T15:22:25.225Z,25.84
2022-09-11T15:24:51.709Z,25.62
2022-09-11T15:27:18.262Z,25.15
2022-09-11T15:29:45.341Z,25.14
2022-09-11T15:32:12.309Z,25.30
2022-09-11T15:34:38.842Z,25.68
2022-09-11T15:37:06.232Z,25.84
2022-09-11T15:39:32.866Z,25.50
2022-09-11T15:41:59.462Z,25.39
2022-09-11T15:44:27.429Z,24.87
2022-09-11T15:46:55.105Z,24.83
2022-09-11T15:49:22.560Z,25.00
2022-09-11T15:51:50.155Z,24.99
2022-09-11T15:54:17.364Z,25.46
2022-09-11T15:56:44.113Z,26.53
2022-09-11T15:59:12.035Z,26.16
2022-09-11T16:01:38.860Z,25.41
2022-09-11T16:04:11.425Z,25.10
2022-09-11T16:06:40.785Z,24.56
2022-09-11T16:09:12.565Z,24.53
2022-09-11T16:11:39.837Z,24.38
2022-09-11T16:14:07.274Z,24.36
2022-09-11T16:16:34.227Z,24.30
2022-09-11T16:19:00.892Z,24.03
2022-09-11T16:21:28.318Z,24.04
2022-09-11T16:24:00.739Z,24.19
2022-09-11T16:26:28.006Z,24.46
2022-09-11T16:28:54.659Z,24.63
2022-09-11T16:31:21.073Z,24.65
2022-09-11T16:33:51.809Z,24.47
2022-09-11T16:36:20.885Z,24.26
2022-09-11T16:38:49.842Z,24.10
2022-09-11T16:41:21.859Z,24.01
2022-09-11T16:43:52.133Z,23.83
2022-09-11T16:46:24.559Z,23.83
2022-09-11T16:48:54.472Z,23.61
2022-09-11T16:51:22.503Z,23.43
2022-09-11T16:53:49.728Z,23.26
2022-09-11T16:56:19.437Z,23.16
2022-09-11T16:58:46.191Z,23.22
2022-09-11T17:01:15.333Z,23.18
2022-09-11T17:03:43.498Z,22.95
2022-09-11T17:06:10.423Z,22.75
2022-09-11T17:08:37.654Z,22.59
2022-09-11T17:11:04.127Z,22.44
2022-09-11T17:13:30.474Z,22.31
2022-09-11T17:16:16.210Z,22.08
2022-09-11T17:18:52.089Z,21.88
2022-09-11T17:21:18.498Z,21.73
2022-09-11T17:23:45.064Z,21.59
2022-09-11T17:26:13.357Z,21.48
2022-09-11T17:28:40.295Z,21.24
2022-09-11T17:31:08.989Z,21.05
2022-09-11T17:33:38.190Z,20.83
2022-09-11T17:36:06.358Z,20.60
2022-09-11T17:38:35.271Z,20.44
2022-09-11T17:41:04.804Z,20.32
2022-09-11T17:43:32.117Z,20.18
2022-09-11T17:46:10.491Z,20.03
2022-09-11T17:48:38.511Z,19.86
2022-09-11T17:51:25.215Z,19.70
2022-09-11T17:53:54.882Z,19.52
2022-09-11T17:56:23.902Z,19.40
2022-09-11T17:58:56.545Z,19.35
2022-09-11T18:01:24.603Z,19.25
2022-09-11T18:03:56.669Z,19.12
2022-09-11T18:06:27.740Z,19.06
2022-09-11T18:08:57.275Z,18.93
2022-09-11T18:11:24.150Z,18.85
2022-09-11T18:13:50.568Z,18.72
2022-09-11T18:16:17.109Z,18.60
2022-09-11T18:18:43.575Z,18.51
2022-09-11T18:21:11.509Z,18.39
2022-09-11T18:23:42.417Z,18.35
2022-09-11T18:26:13.961Z,18.30
2022-09-11T18:28:40.326Z,18.16
2022-09-11T18:31:07.012Z,18.09
2022-09-11T18:33:33.621Z,17.98
2022-09-11T18:36:05.475Z,17.94
2022-09-11T18:38:33.199Z,17.83
2022-09-11T18:41:00.235Z,17.78
2022-09-11T18:43:28.133Z,17.72
2022-09-11T18:45:55.147Z,17.64
2022-09-11T18:48:21.602Z,17.57
2022-09-11T18:50:48.058Z,17.49
2022-09-11T18:53:14.508Z,17.46
2022-09-11T18:55:40.901Z,17.43
2022-09-11T18:58:07.345Z,17.33
2022-09-11T19:00:33.915Z,17.27
2022-09-11T19:03:00.487Z,17.24
2022-09-11T19:05:26.850Z,17.19
2022-09-11T19:07:53.284Z,17.12
2022-09-11T19:10:19.638Z,17.06
2022-09-11T19:12:48.283Z,16.97
2022-09-11T19:15:14.702Z,16.96
2022-09-11T19:17:42.061Z,16.89
2022-09-11T19:20:09.408Z,16.81
2022-09-11T19:22:35.890Z,16.73
2022-09-11T19:25:02.306Z,16.70
2022-09-11T19:27:28.870Z,16.68
2022-09-11T19:29:55.215Z,16.67
2022-09-11T19:32:21.625Z,16.61
2022-09-11T19:34:48.061Z,16.54
2022-09-11T19:37:14.482Z,16.52
2022-09-11T19:39:40.946Z,16.47
2022-09-11T19:42:07.337Z,16.45
2022-09-11T19:44:33.747Z,16.40
2022-09-11T19:47:01.966Z,16.38
2022-09-11T19:49:28.840Z,16.85
2022-09-11T19:51:57.196Z,17.35
2022-09-11T19:54:24.235Z,17.04
2022-09-11T19:56:52.304Z,16.85
2022-09-11T19:59:18.822Z,16.69
2022-09-11T20:01:45.507Z,16.59
2022-09-11T20:04:12.105Z,16.61
2022-09-11T20:06:38.534Z,16.49
2022-09-11T20:11:52.390Z,16.30
2022-09-11T20:14:18.980Z,16.24
2022-09-11T20:16:45.614Z,16.17
2022-09-11T20:19:12.152Z,16.14
2022-09-11T20:21:38.572Z,16.10
2022-09-11T20:24:05.584Z,16.07
2022-09-11T20:26:32.185Z,16.02
2022-09-11T20:29:02.672Z,15.95
2022-09-11T20:31:31.570Z,15.96
2022-09-11T20:34:00.698Z,15.94
2022-09-11T20:36:27.866Z,15.90
2022-09-11T20:38:56.387Z,15.90
2022-09-11T20:41:23.067Z,15.88
2022-09-11T20:43:50.085Z,15.80
2022-09-11T20:46:16.548Z,15.74
2022-09-11T20:48:42.970Z,15.72
2022-09-11T20:51:12.152Z,15.66
2022-09-11T20:53:40.414Z,15.66
2022-09-11T20:56:09.339Z,15.62
2022-09-11T20:58:36.692Z,15.60
2022-09-11T21:01:04.027Z,15.55
2022-09-11T21:03:31.421Z,15.50
2022-09-11T21:06:04.808Z,15.51
2022-09-11T21:08:31.171Z,15.49
2022-09-11T21:11:01.922Z,15.45
2022-09-11T21:13:28.508Z,15.45
2022-09-11T21:15:54.945Z,15.43
2022-09-11T21:18:21.342Z,15.40
2022-09-11T21:20:55.444Z,15.41
2022-09-11T21:23:23.495Z,15.34
2022-09-11T21:25:52.688Z,15.30
2022-09-11T21:28:19.462Z,15.30
2022-09-11T21:30:45.826Z,15.26
2022-09-11T21:33:12.362Z,15.20
2022-09-11T21:35:38.760Z,15.16
2022-09-11T21:38:05.306Z,15.09
2022-09-11T21:40:31.744Z,15.13
2022-09-11T21:42:58.268Z,15.06
2022-09-11T21:45:24.826Z,15.07
2022-09-11T21:47:51.212Z,15.07
2022-09-11T21:50:19.332Z,15.01
2022-09-11T21:52:47.884Z,14.97
2022-09-11T21:55:15.486Z,14.90
2022-09-11T21:57:42.237Z,14.90
2022-09-11T22:00:11.954Z,14.86
2022-09-11T22:02:41.071Z,14.86
2022-09-11T22:05:07.772Z,14.76
2022-09-11T22:07:34.226Z,14.73
2022-09-11T22:10:00.572Z,14.69
2022-09-11T22:12:26.949Z,14.66
2022-09-11T22:14:53.406Z,14.65
2022-09-11T22:17:19.843Z,14.62
2022-09-11T22:19:46.244Z,14.64
2022-09-11T22:22:13.721Z,14.61
2022-09-11T22:24:45.908Z,14.58
2022-09-11T22:27:14.591Z,14.61
2022-09-11T22:29:43.986Z,14.57
2022-09-11T22:32:15.791Z,14.54
2022-09-11T22:34:42.240Z,14.51
2022-09-11T22:37:09.714Z,14.55
2022-09-11T22:39:36.341Z,14.55
2022-09-11T22:42:05.306Z,14.55
2022-09-11T22:44:33.016Z,14.47
2022-09-11T22:47:00.519Z,14.45
2022-09-11T22:49:29.698Z,14.44
2022-09-11T22:51:56.172Z,14.38
2022-09-11T22:54:23.872Z,14.39
2022-09-11T22:56:50.412Z,14.39
2022-09-11T22:59:16.933Z,14.33
2022-09-11T23:01:44.628Z,14.32
2022-09-11T23:04:11.257Z,14.36
2022-09-11T23:06:37.728Z,14.29
2022-09-11T23:09:05.486Z,14.27
2022-09-11T23:11:31.961Z,14.29
2022-09-11T23:13:58.368Z,14.25
2022-09-11T23:16:27.845Z,14.26
2022-09-11T23:19:02.927Z,14.24
2022-09-11T23:21:30.800Z,14.20
2022-09-11T23:23:58.364Z,14.14
2022-09-11T23:26:26.277Z,14.12
2022-09-11T23:28:53.098Z,14.04
2022-09-11T23:31:22.584Z,14.06
2022-09-11T23:33:48.987Z,14.00
2022-09-11T23:36:15.970Z,13.96
2022-09-11T23:38:47.111Z,13.91
2022-09-11T23:41:15.010Z,13.94
2022-09-11T23:43:41.916Z,13.92
2022-09-11T23:46:08.644Z,13.86
2022-09-11T23:48:35.990Z,13.85
2022-09-11T23:51:02.530Z,13.84
2022-09-11T23:53:29.807Z,13.83
2022-09-11T23:55:57.279Z,13.79
2022-09-11T23:58:24.556Z,13.77
